createdAt,value
2022-09-11T00:03:27.664Z,24.41
2022-09-11T00:08:31.725Z,24.21
2022-09-11T00:13:29.170Z,24.24
2022-09-11T00:18:28.887Z,24.76
2022-09-11T00:23:28.111Z,24.37
2022-09-11T00:28:26.901Z,24.41
2022-09-11T00:33:25.606Z,24.16
2022-09-11T00:38:33.522Z,24.26
2022-09-11T00:43:50.084Z,24.24
2022-09-11T00:48:51.244Z,24.80
2022-09-11T00:53:56.868Z,24.37
2022-09-11T00:59:00.851Z,24.38
2022-09-11T01:03:58.393Z,24.19
2022-09-11T01:09:03.472Z,24.57
2022-09-11T01:14:19.986Z,24.14
2022-09-11T01:19:37.301Z,24.60
2022-09-11T01:25:07.746Z,24.23
2022-09-11T01:30:21.493Z,24.22
2022-09-11T01:35:33.752Z,23.82
2022-09-11T01:40:39.889Z,23.61
2022-09-11T01:45:59.195Z,24.15
2022-09-11T01:51:01.256Z,23.47
2022-09-11T01:56:08.523Z,23.57
2022-09-11T02:01:27.341Z,23.93
2022-09-11T02:06:31.630Z,23.46
2022-09-11T02:11:36.583Z,23.24
2022-09-11T02:16:48.105Z,23.45
2022-09-11T02:21:52.495Z,23.13
2022-09-11T02:26:59.986Z,23.25
2022-09-11T02:32:03.943Z,23.03
2022-09-11T02:37:13.343Z,23.09
2022-09-11T02:42:31.441Z,23.09
2022-09-11T02:47:46.131Z,23.42
2022-09-11T02:52:54.091Z,23.50
2022-09-11T02:57:57.280Z,23.02
2022-09-11T03:02:57.175Z,22.80
2022-09-11T03:07:58.446Z,22.82
2022-09-11T03:12:59.400Z,22.83
2022-09-11T03:18:04.664Z,23.32
2022-09-11T03:23:10.556Z,22.64
2022-09-11T03:28:08.946Z,23.17
2022-09-11T03:33:12.472Z,22.95
2022-09-11T03:38:25.411Z,23.23
2022-09-11T03:43:30.326Z,23.14
2022-09-11T03:48:36.401Z,22.95
2022-09-11T03:53:35.850Z,22.61
2022-09-11T03:58:34.948Z,23.08
2022-09-11T04:03:33.032Z,22.55
2022-09-11T04:08:34.361Z,23.05
2022-09-11T04:13:35.983Z,22.54
2022-09-11T04:18:45.429Z,22.94
2022-09-11T04:23:47.766Z,22.51
2022-09-11T04:28:58.612Z,22.77
2022-09-11T04:34:02.181Z,23.00
2022-09-11T04:39:03.786Z,22.84
2022-09-11T04:44:05.494Z,22.60
2022-09-11T04:49:11.396Z,22.96
2022-09-11T04:54:12.863Z,22.82
2022-09-11T04:59:12.904Z,22.87
2022-09-11T05:04:17.794Z,23.33
2022-09-11T05:10:21.466Z,22.93
2022-09-11T05:15:38.254Z,23.67
2022-09-11T05:20:43.260Z,23.69
2022-09-11T05:25:41.094Z,24.02
2022-09-11T05:30:38.295Z,26.03
2022-09-11T05:35:39.899Z,28.58
2022-09-11T05:40:43.419Z,30.81
2022-09-11T05:45:54.206Z,33.47
2022-09-11T05:51:14.930Z,35.16
2022-09-11T05:56:26.435Z,37.22
2022-09-11T06:01:32.986Z,38.54
2022-09-11T06:06:43.596Z,39.36
2022-09-11T06:12:03.070Z,40.43
2022-09-11T06:17:21.485Z,41.36
2022-09-11T06:22:27.281Z,41.90
2022-09-11T06:27:34.368Z,42.21
2022-09-11T06:33:00.564Z,42.55
2022-09-11T06:38:09.288Z,43.14
2022-09-11T12:14:30.888Z,33.88
2022-09-11T12:19:28.530Z,33.71
2022-09-11T12:24:55.043Z,33.43
2022-09-11T12:29:59.457Z,33.33
2022-09-11T12:35:23.106Z,33.33
2022-09-11T12:40:59.380Z,33.15
2022-09-11T12:46:02.224Z,32.86
2022-09-11T12:51:45.697Z,32.65
2022-09-11T12:57:58.718Z,32.30
2022-09-11T13:02:55.640Z,32.17
2022-09-11T13:08:30.787Z,31.84
2022-09-11T13:14:01.075Z,31.93
2022-09-11T13:19:14.110Z,31.58
2022-09-11T13:24:47.890Z,31.09
2022-09-11T13:29:56.601Z,31.39
2022-09-11T13:35:08.388Z,31.32
2022-09-11T13:40:20.771Z,30.72
2022-09-11T13:45:35.842Z,30.86
2022-09-11T13:50:39.011Z,30.64
2022-09-11T13:55:41.951Z,30.73
2022-09-11T14:07:20.721Z,30.53
2022-09-11T14:12:26.913Z,30.51
2022-09-11T14:17:31.259Z,30.65
2022-09-11T14:22:37.691Z,30.60
2022-09-11T14:27:40.138Z,30.39
2022-09-11T14:33:14.835Z,30.14
2022-09-11T14:38:18.073Z,30.52
2022-09-11T14:43:48.941Z,30.24
2022-09-11T14:49:02.167Z,30.07
2022-09-11T14:53:59.343Z,30.11
2022-09-11T14:58:58.160Z,30.55
2022-09-11T15:04:16.600Z,30.45
2022-09-11T15:09:14.504Z,30.49
2022-09-11T15:14:23.699Z,30.30
2022-09-11T15:19:47.835Z,30.43
2022-09-11T15:24:45.036Z,30.45
2022-09-11T15:35:13.346Z,30.37
2022-09-11T15:40:11.002Z,29.99
2022-09-11T15:45:13.904Z,29.72
2022-09-11T15:50:40.445Z,29.87
2022-09-11T15:55:40.044Z,29.76
2022-09-11T16:00:40.421Z,29.66
2022-09-11T16:05:42.500Z,29.27
2022-09-11T16:10:40.023Z,29.42
2022-09-11T16:15:56.443Z,29.02
2022-09-11T16:21:05.415Z,28.92
2022-09-11T16:26:27.656Z,28.76
2022-09-11T16:31:25.050Z,28.75
2022-09-11T16:36:30.552Z,28.56
2022-09-11T16:41:30.297Z,28.43
2022-09-11T16:52:30.771Z,27.97
2022-09-11T17:04:13.974Z,27.62
2022-09-11T17:09:15.093Z,27.87
2022-09-11T17:14:19.480Z,27.93
2022-09-11T17:19:38.289Z,27.52
2022-09-11T17:24:57.830Z,27.37
2022-09-11T17:30:09.296Z,27.49
2022-09-11T17:35:17.302Z,26.96
2022-09-11T17:41:58.609Z,27.47
2022-09-11T17:46:34.813Z,27.22
2022-09-11T17:52:33.488Z,27.12
2022-09-11T17:57:31.316Z,27.01
2022-09-11T18:02:45.947Z,26.61
2022-09-11T18:07:50.552Z,26.76
2022-09-11T18:12:47.910Z,26.98
2022-09-11T18:18:18.001Z,26.49
2022-09-11T18:23:17.041Z,26.81
2022-09-11T18:28:16.327Z,26.74
2022-09-11T18:33:16.119Z,26.73
2022-09-11T18:38:13.189Z,26.53
2022-09-11T18:43:12.815Z,26.54
2022-09-11T18:48:12.523Z,26.55
2022-09-11T18:53:17.452Z,26.02
2022-09-11T18:58:15.843Z,26.03
2022-09-11T19:03:14.280Z,25.88
2022-09-11T19:08:14.685Z,26.06
2022-09-11T19:13:13.338Z,25.90
2022-09-11T19:18:10.346Z,26.13
2022-09-11T19:23:10.659Z,26.23
2022-09-11T19:33:27.000Z,26.04
2022-09-11T19:38:25.289Z,25.90
2022-09-11T19:43:24.405Z,26.18
2022-09-11T19:48:21.818Z,26.28
2022-09-11T19:53:27.549Z,26.02
2022-09-11T19:58:26.215Z,26.24
2022-09-11T20:03:23.346Z,25.89
2022-09-11T20:08:20.578Z,26.20
2022-09-11T20:13:30.196Z,26.38
2022-09-11T20:18:47.028Z,26.18
2022-09-11T20:23:48.254Z,26.51
2022-09-11T20:28:56.421Z,26.06
2022-09-11T20:33:54.113Z,26.34
2022-09-11T20:38:53.187Z,26.35
2022-09-11T20:48:39.821Z,26.04
2022-09-11T20:53:47.840Z,26.32
2022-09-11T20:59:24.115Z,26.03
2022-09-11T21:04:37.508Z,26.02
2022-09-11T21:09:40.134Z,25.71
2022-09-11T21:14:44.485Z,25.62
2022-09-11T21:20:49.663Z,25.82
2022-09-11T21:25:52.697Z,25.65
2022-09-11T21:31:40.876Z,26.00
2022-09-11T21:37:05.852Z,25.83
2022-09-11T21:42:33.046Z,25.79
2022-09-11T21:47:33.487Z,25.44
2022-09-11T21:52:47.902Z,25.33
2022-09-11T21:57:45.638Z,25.74
2022-09-11T22:02:43.185Z,25.49
2022-09-11T22:07:43.517Z,25.45
2022-09-11T22:12:58.096Z,25.44
2022-09-11T22:17:56.674Z,25.53
2022-09-11T22:22:58.888Z,25.57
2022-09-11T22:28:07.401Z,25.43
2022-09-11T22:33:19.728Z,25.46
2022-09-11T22:38:33.792Z,25.06
2022-09-11T22:43:40.630Z,25.24
2022-09-11T22:48:47.778Z,24.98
2022-09-11T22:53:52.469Z,25.10
2022-09-11T22:58:53.589Z,25.15
2022-09-11T23:04:01.816Z,24.76
2022-09-11T23:09:07.482Z,24.67
2022-09-11T23:14:13.910Z,24.58
2022-09-11T23:19:16.763Z,24.57
2022-09-11T23:24:18.845Z,24.64
2022-09-11T23:29:18.581Z,24.40
2022-09-11T23:34:17.538Z,24.69
2022-09-11T23:39:15.371Z,24.33
2022-09-11T23:44:20.774Z,24.61
2022-09-11T23:49:20.052Z,24.49
2022-09-11T23:54:17.022Z,24.35
2022-09-11T23:59:14.225Z,24.23
